createdAt,value
2016-12-03T00:00:26.857Z,88.71
2016-12-03T00:00:54.672Z,89
2016-12-03T00:01:23.154Z,88.71
2016-12-03T00:01:51.586Z,88.42
2016-12-03T00:02:19.473Z,89.19
2016-12-03T00:02:47.652Z,89.19
2016-12-03T00:03:15.738Z,88.9
2016-12-03T00:03:43.487Z,89.09
2016-12-03T00:04:11.594Z,89.39
2016-12-03T00:04:39.648Z,89.48
2016-12-03T00:05:07.423Z,89.29
2016-12-03T00:05:35.893Z,89.48
2016-12-03T00:06:04.026Z,89.09
2016-12-03T00:06:31.844Z,89.48
2016-12-03T00:07:00.325Z,89.48
2016-12-03T00:07:28.522Z,89.09
2016-12-03T00:07:56.395Z,89.39
2016-12-03T00:08:24.543Z,89.39
2016-12-03T00:08:52.631Z,89.09
2016-12-03T00:09:20.761Z,89.34
2016-12-03T00:09:48.493Z,89.29
2016-12-03T00:10:16.233Z,89.63
2016-12-03T00:10:44.105Z,89.72
2016-12-03T00:11:12.398Z,90.11
2016-12-03T00:11:40.262Z,90.5
2016-12-03T00:12:08.088Z,90.4
2016-12-03T00:12:35.869Z,90.4
2016-12-03T00:13:04.015Z,91.36
2016-12-03T00:13:32.221Z,91.07
2016-12-03T00:14:00.140Z,91.17
2016-12-03T00:14:28.209Z,90.5
2016-12-03T00:14:56.559Z,91.27
2016-12-03T00:15:24.633Z,90.97
2016-12-03T00:15:53.074Z,91.27
2016-12-03T00:16:20.926Z,90.59
2016-12-03T00:16:48.776Z,91.36
2016-12-03T00:17:17.172Z,91.07
2016-12-03T00:17:45.217Z,91.17
2016-12-03T00:18:13.077Z,91.17
2016-12-03T00:18:40.905Z,91.36
2016-12-03T00:19:08.940Z,91.17
2016-12-03T00:19:36.842Z,91.65
2016-12-03T00:20:04.911Z,91.27
2016-12-03T00:20:32.801Z,91.17
2016-12-03T00:21:00.723Z,90.69
2016-12-03T00:21:28.523Z,91.36
2016-12-03T00:21:56.333Z,90.88
2016-12-03T00:22:24.103Z,90.88
2016-12-03T00:22:52.223Z,90.97
2016-12-03T00:23:20.142Z,91.36
2016-12-03T00:23:48.136Z,91.07
2016-12-03T00:24:16.010Z,91.46
2016-12-03T00:24:43.791Z,91.36
2016-12-03T00:25:11.631Z,91.55
2016-12-03T00:25:39.588Z,91.27
2016-12-03T00:26:07.369Z,91.27
2016-12-03T00:26:35.580Z,91.36
2016-12-03T00:27:03.371Z,91.17
2016-12-03T00:27:31.826Z,91.36
2016-12-03T00:27:59.953Z,91.36
2016-12-03T00:28:28.120Z,91.17
2016-12-03T00:28:56.788Z,91.27
2016-12-03T00:29:24.563Z,91.36
2016-12-03T00:29:52.575Z,91.17
2016-12-03T00:30:21.082Z,91.65
2016-12-03T00:30:48.886Z,91.46
2016-12-03T00:31:16.691Z,90.78
2016-12-03T00:31:44.565Z,91.07
2016-12-03T00:32:12.712Z,91.17
2016-12-03T00:32:40.840Z,91.07
2016-12-03T00:33:09.210Z,91.17
2016-12-03T00:33:37.327Z,91.55
2016-12-03T00:34:05.430Z,91.55
2016-12-03T00:34:33.274Z,91.17
2016-12-03T00:35:01.188Z,92.13
2016-12-03T00:35:29.376Z,92.03
2016-12-03T00:36:11.795Z,91.8
2016-12-03T00:36:40.011Z,91.55
2016-12-03T00:37:07.879Z,92.03
2016-12-03T00:37:35.711Z,91.94
2016-12-03T00:38:04.107Z,91.55
2016-12-03T00:38:31.980Z,91.75
2016-12-03T00:39:00.232Z,92.03
2016-12-03T00:39:28.104Z,91.84
2016-12-03T00:40:10.857Z,91.07
2016-12-03T00:40:38.661Z,91.46
2016-12-03T00:41:06.779Z,91.17
2016-12-03T00:41:34.934Z,91.36
2016-12-03T00:42:02.783Z,91.46
2016-12-03T00:42:30.692Z,91.36
2016-12-03T00:42:58.853Z,91.17
2016-12-03T00:43:26.858Z,91.65
2016-12-03T00:43:54.813Z,91.55
2016-12-03T00:44:22.691Z,91.36
2016-12-03T00:44:50.468Z,91.17
2016-12-03T00:45:18.893Z,91.46
2016-12-03T00:45:46.796Z,91.65
2016-12-03T00:46:14.739Z,91.65
2016-12-03T00:46:42.643Z,91.51
2016-12-03T00:47:10.766Z,91.8
2016-12-03T00:47:39.186Z,91.75
2016-12-03T00:48:07.442Z,91.55
2016-12-03T00:48:35.313Z,91.84
2016-12-03T00:49:03.090Z,91.8
2016-12-03T00:49:31.329Z,91.17
2016-12-03T00:49:59.162Z,91.84
2016-12-03T00:50:26.925Z,92.03
2016-12-03T00:50:54.850Z,91.65
2016-12-03T00:51:23.583Z,91.84
2016-12-03T00:51:51.780Z,91.99
2016-12-03T00:52:34.258Z,91.8
2016-12-03T00:53:02.404Z,91.8
2016-12-03T00:53:30.230Z,91.75
2016-12-03T00:53:58.007Z,91.46
2016-12-03T00:54:26.161Z,91.7
2016-12-03T00:54:54.293Z,91.6
2016-12-03T00:55:22.153Z,91.75
2016-12-03T00:55:50.007Z,91.94
2016-12-03T00:56:17.833Z,92.03
2016-12-03T00:56:45.544Z,91.8
2016-12-03T00:57:13.286Z,91.99
2016-12-03T00:57:41.099Z,91.65
2016-12-03T00:58:09.566Z,91.94
2016-12-03T00:58:38.018Z,91.65
2016-12-03T00:59:05.918Z,91.03
2016-12-03T00:59:33.806Z,91.13
2016-12-03T01:00:01.568Z,91.99
2016-12-03T01:00:29.412Z,91.8
2016-12-03T01:00:57.312Z,91.7
2016-12-03T01:02:07.602Z,91.89
2016-12-03T01:02:35.405Z,91.7
2016-12-03T01:03:03.861Z,91.7
2016-12-03T01:03:32.026Z,91.99
2016-12-03T01:04:00.102Z,91.7
2016-12-03T01:04:27.922Z,91.41
2016-12-03T01:04:55.777Z,91.22
2016-12-03T01:05:23.756Z,92.18
2016-12-03T01:05:51.568Z,91.99
2016-12-03T01:06:19.355Z,92.38
2016-12-03T01:06:47.737Z,92.18
2016-12-03T01:07:15.952Z,91.7
2016-12-03T01:07:43.817Z,91.89
2016-12-03T01:08:11.589Z,91.89
2016-12-03T01:08:39.447Z,91.99
2016-12-03T01:09:07.246Z,92.08
2016-12-03T01:09:35.045Z,91.8
2016-12-03T01:10:02.905Z,92.18
2016-12-03T01:10:30.659Z,92.18
2016-12-03T01:10:58.447Z,91.8
2016-12-03T01:11:26.245Z,91.99
2016-12-03T01:11:54.406Z,92.66
2016-12-03T01:12:22.543Z,92.57
2016-12-03T01:12:50.332Z,92.95
2016-12-03T01:13:18.156Z,92.18
2016-12-03T01:13:46.013Z,91.8
2016-12-03T01:14:13.835Z,92.08
2016-12-03T01:14:41.980Z,92.08
2016-12-03T01:15:10.118Z,91.99
2016-12-03T01:15:37.906Z,91.8
2016-12-03T01:16:06.622Z,92.18
2016-12-03T01:16:34.484Z,91.8
2016-12-03T01:17:02.316Z,91.89
2016-12-03T01:17:30.217Z,91.89
2016-12-03T01:17:58.059Z,91.8
2016-12-03T01:18:26.199Z,91.8
2016-12-03T01:18:54.654Z,91.89
2016-12-03T01:19:22.497Z,91.99
2016-12-03T01:19:50.597Z,92.18
2016-12-03T01:20:18.537Z,92.18
2016-12-03T01:20:46.860Z,92.18
2016-12-03T01:21:15.030Z,92.76
2016-12-03T01:21:42.836Z,92.47
2016-12-03T01:22:10.945Z,92.38
2016-12-03T01:22:39.023Z,92.85
2016-12-03T01:23:07.141Z,92.66
2016-12-03T01:23:35.049Z,92.57
2016-12-03T01:24:03.130Z,92.76
2016-12-03T01:24:30.898Z,92.28
2016-12-03T01:24:58.667Z,92.57
2016-12-03T01:25:26.489Z,92.57
2016-12-03T01:25:54.231Z,93.15
2016-12-03T01:26:21.982Z,93.15
2016-12-03T01:26:49.794Z,93.15
2016-12-03T01:27:17.619Z,93.33
2016-12-03T01:27:45.730Z,92.85
2016-12-03T01:28:13.895Z,93.05
2016-12-03T01:28:42.308Z,93.33
2016-12-03T01:29:10.028Z,93.24
2016-12-03T01:29:37.790Z,93.05
2016-12-03T01:30:05.613Z,93.05
2016-12-03T01:30:33.502Z,93.24
2016-12-03T01:31:01.689Z,93.15
2016-12-03T01:31:30.141Z,92.85
2016-12-03T01:31:58.303Z,93.15
2016-12-03T01:32:26.457Z,92.76
2016-12-03T01:32:54.581Z,93.24
2016-12-03T01:33:23.012Z,93.24
2016-12-03T01:33:50.868Z,92.95
2016-12-03T01:34:18.752Z,93.05
2016-12-03T01:34:46.638Z,93.43
2016-12-03T01:35:14.456Z,93.53
2016-12-03T01:35:42.817Z,93.53
2016-12-03T01:36:10.958Z,93.15
2016-12-03T01:36:39.149Z,93.33
2016-12-03T01:37:07.282Z,93.33
2016-12-03T01:37:35.095Z,93.33
2016-12-03T01:38:03.230Z,93.53
2016-12-03T01:38:31.059Z,93.82
2016-12-03T01:38:58.959Z,93.62
2016-12-03T01:39:26.720Z,93.53
2016-12-03T01:39:54.549Z,93.72
2016-12-03T01:40:22.702Z,93.24
2016-12-03T01:40:50.780Z,93.33
2016-12-03T01:41:18.952Z,93.62
2016-12-03T01:41:46.815Z,93.43
2016-12-03T01:42:14.678Z,93.72
2016-12-03T01:42:42.583Z,93.72
2016-12-03T01:43:10.943Z,93.72
2016-12-03T01:43:58.811Z,93.62
2016-12-03T01:44:26.669Z,93.72
2016-12-03T01:44:54.508Z,93.62
2016-12-03T01:45:22.993Z,93.72
2016-12-03T01:45:50.814Z,93.72
2016-12-03T01:46:18.649Z,93.53
2016-12-03T01:46:46.800Z,93.62
2016-12-03T01:47:14.954Z,93.82
2016-12-03T01:47:42.877Z,93.72
2016-12-03T01:48:11.053Z,93.62
2016-12-03T01:48:38.902Z,93.62
2016-12-03T01:49:06.680Z,94.3
2016-12-03T01:49:34.817Z,93.72
2016-12-03T01:50:02.975Z,93.53
2016-12-03T01:50:31.476Z,94.1
2016-12-03T01:50:59.558Z,94.2
2016-12-03T01:51:27.363Z,93.62
2016-12-03T01:51:55.492Z,93.43
2016-12-03T01:52:23.616Z,93.72
2016-12-03T01:52:51.739Z,94.01
2016-12-03T01:53:19.561Z,93.62
2016-12-03T01:53:47.644Z,94.01
2016-12-03T01:54:15.449Z,93.62
2016-12-03T01:54:44.102Z,93.91
2016-12-03T01:55:11.909Z,94.4
2016-12-03T01:55:39.867Z,94.01
2016-12-03T01:56:08.037Z,94.01
2016-12-03T01:56:35.826Z,94.49
2016-12-03T01:57:03.998Z,94.01
2016-12-03T01:57:32.137Z,94.49
2016-12-03T01:57:59.942Z,94.2
2016-12-03T01:58:27.760Z,94.2
2016-12-03T01:58:55.829Z,93.82
2016-12-03T01:59:23.933Z,93.91
2016-12-03T01:59:51.742Z,94.59
2016-12-03T02:00:19.461Z,94.4
2016-12-03T02:00:47.912Z,94.4
2016-12-03T02:01:15.754Z,94.59
2016-12-03T02:01:43.540Z,94.4
2016-12-03T02:02:11.717Z,94.68
2016-12-03T02:02:39.874Z,94.78
2016-12-03T02:03:08.047Z,94.3
2016-12-03T02:03:35.842Z,94.4
2016-12-03T02:04:03.604Z,94.1
2016-12-03T02:04:31.450Z,94.49
2016-12-03T02:05:00.032Z,94.78
2016-12-03T02:05:27.870Z,94.4
2016-12-03T02:05:55.800Z,94.4
2016-12-03T02:06:23.992Z,94.59
2016-12-03T02:06:51.855Z,94.49
2016-12-03T02:07:20.039Z,94.1
2016-12-03T02:07:47.936Z,94.3
2016-12-03T02:08:15.855Z,94.59
2016-12-03T02:08:43.609Z,94.49
2016-12-03T02:09:11.756Z,94.59
2016-12-03T02:09:39.593Z,94.49
2016-12-03T02:10:07.331Z,93.72
2016-12-03T02:10:35.444Z,94.1
2016-12-03T02:11:03.847Z,94.49
2016-12-03T02:11:31.631Z,94.01
2016-12-03T02:11:59.451Z,94.3
2016-12-03T02:12:27.908Z,94.3
2016-12-03T02:12:56.303Z,94.4
2016-12-03T02:13:24.490Z,94.78
2016-12-03T02:13:52.289Z,94.87
2016-12-03T02:14:20.092Z,94.59
2016-12-03T02:14:48.580Z,94.87
2016-12-03T02:15:16.677Z,94.59
2016-12-03T02:15:44.583Z,95.36
2016-12-03T02:16:13.041Z,94.68
2016-12-03T02:16:41.181Z,95.17
2016-12-03T02:17:08.981Z,95.07
2016-12-03T02:17:36.742Z,94.97
2016-12-03T02:18:04.865Z,95.17
2016-12-03T02:18:33.334Z,95.07
2016-12-03T02:19:02.049Z,95.55
2016-12-03T02:19:30.177Z,95.36
2016-12-03T02:19:57.949Z,95.26
2016-12-03T02:20:25.738Z,95.55
2016-12-03T02:20:53.888Z,95.07
2016-12-03T02:21:21.679Z,95.17
2016-12-03T02:21:49.513Z,95.17
2016-12-03T02:22:17.373Z,95.17
2016-12-03T02:22:45.303Z,94.97
2016-12-03T02:23:13.438Z,94.97
2016-12-03T02:23:41.187Z,95.07
2016-12-03T02:24:09.065Z,95.17
2016-12-03T02:24:36.901Z,95.17
2016-12-03T02:25:05.030Z,95.36
2016-12-03T02:25:33.180Z,95.36
2016-12-03T02:26:01.002Z,95.26
2016-12-03T02:26:29.297Z,95.36
2016-12-03T02:26:57.075Z,95.07
2016-12-03T02:27:25.305Z,95.21
2016-12-03T02:27:53.076Z,95.17
2016-12-03T02:28:20.941Z,95.55
2016-12-03T02:28:48.764Z,95.55
2016-12-03T02:29:16.592Z,95.55
2016-12-03T02:29:44.696Z,95.55
2016-12-03T02:30:12.555Z,95.36
2016-12-03T02:30:40.384Z,95.89
2016-12-03T02:31:09.027Z,95.74
2016-12-03T02:31:36.950Z,95.79
2016-12-03T02:32:04.742Z,95.36
2016-12-03T02:32:32.618Z,95.36
2016-12-03T02:33:00.438Z,95.6
2016-12-03T02:33:28.308Z,95.94
2016-12-03T02:33:56.432Z,96.27
2016-12-03T02:34:24.957Z,96.08
2016-12-03T02:34:52.722Z,96.32
2016-12-03T02:35:20.931Z,96.27
2016-12-03T02:35:48.735Z,96.47
2016-12-03T02:36:16.546Z,96.27
2016-12-03T02:36:44.277Z,96.27
2016-12-03T02:37:12.744Z,96.27
2016-12-03T02:37:40.553Z,96.12
2016-12-03T02:38:08.724Z,96.08
2016-12-03T02:38:37.106Z,96.37
2016-12-03T02:39:04.989Z,95.6
2016-12-03T02:39:32.807Z,95.5
2016-12-03T02:40:00.605Z,95.5
2016-12-03T02:40:28.633Z,96.27
2016-12-03T02:40:56.497Z,96.03
2016-12-03T02:41:24.395Z,95.89
2016-12-03T02:41:52.119Z,95.79
2016-12-03T02:42:19.896Z,95.7
2016-12-03T02:42:48.014Z,95.79
2016-12-03T02:43:16.103Z,95.65
2016-12-03T02:43:44.165Z,95.89
2016-12-03T02:44:11.993Z,96.08
2016-12-03T02:44:39.854Z,96.47
2016-12-03T02:45:07.706Z,96.66
2016-12-03T02:45:35.517Z,96.66
2016-12-03T02:46:03.295Z,96.27
2016-12-03T02:46:31.744Z,96.17
2016-12-03T02:47:00.169Z,95.89
2016-12-03T02:47:28.018Z,95.6
2016-12-03T02:47:55.865Z,96.27
2016-12-03T02:48:23.640Z,96.08
2016-12-03T02:48:51.484Z,95.89
2016-12-03T02:49:19.885Z,96.47
2016-12-03T02:49:48.023Z,96.08
2016-12-03T02:50:15.815Z,96.27
2016-12-03T02:50:43.992Z,96.08
2016-12-03T02:51:12.178Z,95.79
2016-12-03T02:51:40.508Z,95.89
2016-12-03T02:52:08.333Z,95.79
2016-12-03T02:52:36.341Z,96.08
2016-12-03T02:53:04.139Z,95.6
2016-12-03T02:53:31.940Z,95.5
2016-12-03T02:54:00.050Z,95.31
2016-12-03T02:54:27.923Z,95.89
2016-12-03T02:54:56.087Z,95.7
2016-12-03T02:55:24.236Z,95.21
2016-12-03T02:55:52.381Z,95.7
2016-12-03T02:56:21.174Z,95.21
2016-12-03T02:56:49.001Z,95.5
2016-12-03T02:57:16.802Z,95.79
2016-12-03T02:57:44.636Z,95.98
2016-12-03T02:58:12.377Z,95.98
2016-12-03T02:58:40.464Z,96.56
2016-12-03T02:59:08.296Z,96.47
2016-12-03T02:59:36.094Z,96.37
2016-12-03T03:00:03.893Z,96.56
2016-12-03T03:00:31.735Z,96.66
2016-12-03T03:00:59.857Z,96.85
2016-12-03T03:01:28.083Z,96.94
2016-12-03T03:01:56.241Z,96.75
2016-12-03T03:02:24.301Z,96.75
2016-12-03T03:02:52.142Z,96.56
2016-12-03T03:03:20.899Z,96.37
2016-12-03T03:03:48.598Z,96.47
2016-12-03T03:04:16.693Z,96.47
2016-12-03T03:04:44.533Z,96.47
2016-12-03T03:05:12.360Z,96.17
2016-12-03T03:05:40.815Z,96.66
2016-12-03T03:06:08.729Z,96.56
2016-12-03T03:06:36.908Z,96.56
2016-12-03T03:07:04.820Z,96.56
2016-12-03T03:07:32.992Z,96.75
2016-12-03T03:08:00.781Z,97.04
2016-12-03T03:08:28.679Z,97.04
2016-12-03T03:08:56.560Z,96.75
2016-12-03T03:09:24.479Z,97.14
2016-12-03T03:09:52.695Z,97.33
2016-12-03T03:10:20.518Z,97.33
2016-12-03T03:10:48.702Z,97.14
2016-12-03T03:11:16.544Z,97.24
2016-12-03T03:11:44.539Z,97.33
2016-12-03T03:12:13.004Z,97.52
2016-12-03T03:12:40.819Z,97.52
2016-12-03T03:13:08.839Z,97.33
2016-12-03T03:13:36.971Z,97.52
2016-12-03T03:14:04.766Z,97.33
2016-12-03T03:14:32.535Z,97.14
2016-12-03T03:15:00.320Z,97.24
2016-12-03T03:15:28.454Z,97.14
2016-12-03T03:15:56.614Z,97.04
2016-12-03T03:16:24.424Z,97.14
2016-12-03T03:16:52.596Z,96.94
2016-12-03T03:17:20.483Z,97.04
2016-12-03T03:17:48.715Z,96.56
2016-12-03T03:18:16.859Z,96.94
2016-12-03T03:18:45.312Z,96.66
2016-12-03T03:19:13.409Z,96.75
2016-12-03T03:19:41.500Z,97.14
2016-12-03T03:20:09.351Z,96.85
2016-12-03T03:20:37.446Z,96.94
2016-12-03T03:21:05.206Z,97.04
2016-12-03T03:21:33.313Z,97.24
2016-12-03T03:22:01.873Z,97.04
2016-12-03T03:22:29.727Z,97.33
2016-12-03T03:22:57.581Z,97.52
2016-12-03T03:23:25.370Z,97.91
2016-12-03T03:23:53.130Z,97.24
2016-12-03T03:24:20.979Z,97.81
2016-12-03T03:24:48.746Z,97.42
2016-12-03T03:25:16.529Z,97.42
2016-12-03T03:25:44.955Z,97.42
2016-12-03T03:26:12.778Z,97.33
2016-12-03T03:26:40.597Z,97.33
2016-12-03T03:27:08.723Z,97.52
2016-12-03T03:27:36.538Z,97.42
2016-12-03T03:28:04.706Z,97.52
2016-12-03T03:28:32.504Z,97.52
2016-12-03T03:29:00.319Z,96.94
2016-12-03T03:29:28.985Z,97.33
2016-12-03T03:29:56.783Z,96.85
2016-12-03T03:30:24.936Z,96.94
2016-12-03T03:30:53.071Z,96.85
2016-12-03T03:31:21.142Z,96.94
2016-12-03T03:31:49.225Z,97.04
2016-12-03T03:32:17.053Z,97.14
2016-12-03T03:32:44.902Z,96.75
2016-12-03T03:33:12.671Z,97.14
2016-12-03T03:33:40.794Z,97.04
2016-12-03T03:34:09.127Z,96.75
2016-12-03T03:34:37.569Z,96.94
2016-12-03T03:35:05.759Z,97.09
2016-12-03T03:35:33.527Z,97.28
2016-12-03T03:36:01.985Z,97.28
2016-12-03T03:36:30.052Z,97.09
2016-12-03T03:36:58.118Z,97.19
2016-12-03T03:37:25.955Z,97.38
2016-12-03T03:37:53.793Z,96.99
2016-12-03T03:38:21.917Z,97.19
2016-12-03T03:38:49.678Z,97.19
2016-12-03T03:39:17.453Z,97.38
2016-12-03T03:39:45.208Z,97.19
2016-12-03T03:40:13.314Z,97.38
2016-12-03T03:40:41.153Z,96.8
2016-12-03T03:41:09.120Z,96.42
2016-12-03T03:41:36.896Z,96.7
2016-12-03T03:42:05.119Z,96.61
2016-12-03T03:42:32.981Z,96.7
2016-12-03T03:43:00.842Z,96.22
2016-12-03T03:43:28.590Z,96.12
2016-12-03T03:43:56.586Z,96.7
2016-12-03T03:44:24.426Z,96.89
2016-12-03T03:44:52.234Z,96.51
2016-12-03T03:45:20.422Z,96.61
2016-12-03T03:45:48.534Z,96.8
2016-12-03T03:46:16.315Z,97.09
2016-12-03T03:46:44.430Z,96.7
2016-12-03T03:47:12.212Z,96.51
2016-12-03T03:47:40.024Z,96.61
2016-12-03T03:48:07.869Z,96.8
2016-12-03T03:48:35.599Z,96.32
2016-12-03T03:49:03.449Z,96.99
2016-12-03T03:49:31.568Z,97.28
2016-12-03T03:50:00.263Z,97.28
2016-12-03T03:50:28.112Z,96.89
2016-12-03T03:50:55.956Z,96.99
2016-12-03T03:51:24.051Z,96.89
2016-12-03T03:51:52.080Z,97.19
2016-12-03T03:52:19.963Z,97.38
2016-12-03T03:52:47.805Z,97.09
2016-12-03T03:53:16.264Z,96.99
2016-12-03T03:53:44.186Z,96.8
2016-12-03T03:54:12.024Z,97.28
2016-12-03T03:54:39.856Z,96.51
2016-12-03T03:55:07.646Z,96.7
2016-12-03T03:55:35.777Z,96.99
2016-12-03T03:56:04.746Z,97.28
2016-12-03T03:56:32.574Z,97.28
2016-12-03T03:57:00.399Z,96.99
2016-12-03T03:57:28.212Z,97.28
2016-12-03T03:57:56.058Z,97.19
2016-12-03T03:58:24.224Z,97.67
2016-12-03T03:58:52.298Z,96.99
2016-12-03T03:59:20.469Z,97.47
2016-12-03T03:59:48.598Z,97.57
2016-12-03T04:00:17.020Z,97.47
2016-12-03T04:00:44.874Z,97.28
2016-12-03T04:01:12.634Z,97.38
2016-12-03T04:01:40.465Z,97.47
2016-12-03T04:02:08.331Z,97.38
2016-12-03T04:02:36.149Z,97.38
2016-12-03T04:03:04.640Z,97.47
2016-12-03T04:03:32.425Z,97.57
2016-12-03T04:04:00.904Z,97.38
2016-12-03T04:04:28.684Z,97.67
2016-12-03T04:04:56.573Z,97.47
2016-12-03T04:05:24.779Z,97.19
2016-12-03T04:05:52.633Z,97.47
2016-12-03T04:06:20.705Z,97.57
2016-12-03T04:06:48.543Z,97.28
2016-12-03T04:07:16.304Z,97.47
2016-12-03T04:07:44.429Z,97.19
2016-12-03T04:08:13.119Z,97.38
2016-12-03T04:08:41.251Z,97.28
2016-12-03T04:09:09.412Z,97.47
2016-12-03T04:09:37.473Z,97.86
2016-12-03T04:10:05.207Z,97.57
2016-12-03T04:10:33.038Z,97.86
2016-12-03T04:11:00.857Z,97.38
2016-12-03T04:11:28.647Z,97.19
2016-12-03T04:11:57.045Z,97.57
2016-12-03T04:12:25.130Z,97.67
2016-12-03T04:12:53.269Z,97.38
2016-12-03T04:13:21.455Z,97.19
2016-12-03T04:13:49.600Z,96.99
2016-12-03T04:14:17.510Z,97.28
2016-12-03T04:14:45.248Z,97.47
2016-12-03T04:15:13.998Z,97.76
2016-12-03T04:15:41.721Z,97.67
2016-12-03T04:16:09.529Z,97.57
2016-12-03T04:16:37.706Z,97.57
2016-12-03T04:17:05.889Z,97.28
2016-12-03T04:17:34.328Z,97.86
2016-12-03T04:18:02.431Z,98.05
2016-12-03T04:18:30.203Z,97.86
2016-12-03T04:18:58.043Z,97.86
2016-12-03T04:19:26.446Z,97.76
2016-12-03T04:19:54.530Z,98.24
2016-12-03T04:20:22.641Z,97.86
2016-12-03T04:20:51.369Z,98.24
2016-12-03T04:21:19.159Z,97.67
2016-12-03T04:21:47.023Z,98.14
2016-12-03T04:22:15.027Z,97.67
2016-12-03T04:22:43.126Z,97.47
2016-12-03T04:23:11.001Z,97.67
2016-12-03T04:23:39.035Z,97.57
2016-12-03T04:24:06.962Z,97.57
2016-12-03T04:24:34.754Z,97.47
2016-12-03T04:25:02.514Z,97.76
2016-12-03T04:25:30.711Z,97.76
2016-12-03T04:25:58.486Z,97.28
2016-12-03T04:26:26.313Z,96.89
2016-12-03T04:26:54.123Z,96.99
2016-12-03T04:27:21.981Z,97.19
2016-12-03T04:27:50.166Z,97.57
2016-12-03T04:28:18.028Z,97.47
2016-12-03T04:28:45.863Z,97.38
2016-12-03T04:29:13.994Z,97.28
2016-12-03T04:29:42.122Z,97.47
2016-12-03T04:30:10.502Z,97.47
2016-12-03T04:30:38.634Z,97.57
2016-12-03T04:31:06.829Z,97.19
2016-12-03T04:31:34.634Z,97.57
2016-12-03T04:32:02.747Z,97.67
2016-12-03T04:32:30.978Z,97.47
2016-12-03T04:32:58.848Z,97.57
2016-12-03T04:33:26.639Z,97.28
2016-12-03T04:33:54.456Z,97.19
2016-12-03T04:34:22.661Z,97.28
2016-12-03T04:34:50.488Z,97.47
2016-12-03T04:35:18.329Z,97.57
2016-12-03T04:35:46.423Z,97.28
2016-12-03T04:36:14.233Z,98.24
2016-12-03T04:36:42.073Z,97.86
2016-12-03T04:37:09.881Z,97.38
2016-12-03T04:37:38.025Z,97.86
2016-12-03T04:38:05.906Z,97.96
2016-12-03T04:38:33.764Z,97.57
2016-12-03T04:39:02.199Z,98.14
2016-12-03T04:39:29.965Z,98.05
2016-12-03T04:39:58.082Z,98.34
2016-12-03T04:40:26.097Z,98.05
2016-12-03T04:40:53.946Z,97.86
2016-12-03T04:41:21.661Z,97.76
2016-12-03T04:41:49.759Z,98.05
2016-12-03T04:42:18.129Z,97.57
2016-12-03T04:42:45.943Z,98.05
2016-12-03T04:43:13.806Z,97.76
2016-12-03T04:43:41.977Z,98.05
2016-12-03T04:44:10.325Z,97.67
2016-12-03T04:44:38.116Z,97.67
2016-12-03T04:45:06.015Z,97.86
2016-12-03T04:45:33.905Z,97.28
2016-12-03T04:46:02.057Z,97.47
2016-12-03T04:46:29.798Z,97.38
2016-12-03T04:46:57.565Z,97.47
2016-12-03T04:47:25.378Z,97.47
2016-12-03T04:47:53.191Z,97.28
2016-12-03T04:48:20.983Z,97.47
2016-12-03T04:48:48.735Z,97.67
2016-12-03T04:49:16.607Z,97.76
2016-12-03T04:49:44.349Z,98.05
2016-12-03T04:50:12.149Z,97.57
2016-12-03T04:50:40.228Z,97.28
2016-12-03T04:51:08.393Z,97.28
2016-12-03T04:51:36.882Z,97.47
2016-12-03T04:52:05.071Z,97.47
2016-12-03T04:52:33.456Z,97.47
2016-12-03T04:53:01.348Z,97.47
2016-12-03T04:53:29.160Z,97.67
2016-12-03T04:53:57.094Z,97.67
2016-12-03T04:54:25.207Z,97.76
2016-12-03T04:54:53.665Z,97.67
2016-12-03T04:55:21.491Z,97.19
2016-12-03T04:55:49.613Z,97.19
2016-12-03T04:56:17.469Z,97.19
2016-12-03T04:56:45.305Z,96.99
2016-12-03T04:57:13.046Z,97.09
2016-12-03T04:57:41.197Z,97.76
2016-12-03T04:58:09.023Z,97.47
2016-12-03T04:58:36.839Z,97.57
2016-12-03T04:59:04.651Z,97.38
2016-12-03T04:59:32.392Z,97.47
2016-12-03T05:00:00.797Z,97.47
2016-12-03T05:00:29.262Z,97.28
2016-12-03T05:00:57.399Z,97.76
2016-12-03T05:01:25.166Z,97.38
2016-12-03T05:01:52.922Z,97.57
2016-12-03T05:02:20.793Z,97.86
2016-12-03T05:02:48.761Z,97.57
2016-12-03T05:03:16.566Z,97.86
2016-12-03T05:03:44.759Z,97.67
2016-12-03T05:04:12.509Z,97.57
2016-12-03T05:04:40.623Z,97.19
2016-12-03T05:05:08.402Z,97.47
2016-12-03T05:05:36.182Z,97.96
2016-12-03T05:06:04.056Z,97.38
2016-12-03T05:06:31.978Z,97.86
2016-12-03T05:06:59.866Z,97.96
2016-12-03T05:07:27.652Z,98.14
2016-12-03T05:07:56.087Z,98.05
2016-12-03T05:08:23.932Z,98.34
2016-12-03T05:08:51.768Z,98.05
2016-12-03T05:09:19.917Z,98.14
2016-12-03T05:09:48.294Z,98.05
2016-12-03T05:10:16.162Z,98.44
2016-12-03T05:10:43.999Z,98.14
2016-12-03T05:11:11.760Z,98.44
2016-12-03T05:11:39.520Z,98.54
2016-12-03T05:12:07.628Z,97.67
2016-12-03T05:12:36.036Z,97.96
2016-12-03T05:13:03.847Z,97.96
2016-12-03T05:13:31.675Z,98.05
2016-12-03T05:13:59.887Z,98.14
2016-12-03T05:14:28.018Z,98.44
2016-12-03T05:14:55.801Z,98.05
2016-12-03T05:15:24.006Z,98.14
2016-12-03T05:15:51.831Z,98.63
2016-12-03T05:16:19.995Z,98.92
2016-12-03T05:16:47.790Z,98.72
2016-12-03T05:17:15.554Z,97.96
2016-12-03T05:17:43.735Z,98.54
2016-12-03T05:18:11.824Z,98.72
2016-12-03T05:18:40.028Z,98.72
2016-12-03T05:19:08.265Z,98.72
2016-12-03T05:19:36.405Z,98.54
2016-12-03T05:20:04.491Z,98.63
2016-12-03T05:20:32.320Z,98.82
2016-12-03T05:21:00.139Z,99.3
2016-12-03T05:21:28.240Z,98.54
2016-12-03T05:21:56.044Z,98.63
2016-12-03T05:22:24.179Z,98.63
2016-12-03T05:22:52.462Z,98.54
2016-12-03T05:23:20.567Z,99.3
2016-12-03T05:23:48.392Z,99.21
2016-12-03T05:24:16.118Z,98.63
2016-12-03T05:24:44.190Z,98.72
2016-12-03T05:25:12.040Z,98.54
2016-12-03T05:25:39.890Z,98.44
2016-12-03T05:26:07.724Z,98.72
2016-12-03T05:26:35.621Z,98.44
2016-12-03T05:27:04.088Z,98.92
2016-12-03T05:27:31.896Z,99.01
2016-12-03T05:27:59.734Z,99.01
2016-12-03T05:28:27.521Z,98.54
2016-12-03T05:28:55.315Z,98.54
2016-12-03T05:29:23.155Z,98.54
2016-12-03T05:29:51.272Z,98.63
2016-12-03T05:30:19.062Z,98.54
2016-12-03T05:30:46.837Z,98.63
2016-12-03T05:31:14.957Z,98.72
2016-12-03T05:31:43.450Z,98.34
2016-12-03T05:32:11.267Z,98.34
2016-12-03T05:32:39.290Z,98.44
2016-12-03T05:33:07.102Z,98.14
2016-12-03T05:33:34.916Z,98.82
2016-12-03T05:34:02.732Z,98.72
2016-12-03T05:34:30.552Z,98.54
2016-12-03T05:34:58.436Z,99.01
2016-12-03T05:35:26.546Z,99.01
2016-12-03T05:35:54.373Z,98.82
2016-12-03T05:36:23.434Z,98.87
2016-12-03T05:36:51.280Z,99.06
2016-12-03T05:37:19.075Z,98.87
2016-12-03T05:37:46.930Z,98.72
2016-12-03T05:38:14.967Z,98.72
2016-12-03T05:38:43.011Z,98.49
2016-12-03T05:39:11.527Z,98.82
2016-12-03T05:39:39.708Z,98.63
2016-12-03T05:40:07.532Z,98.92
2016-12-03T05:40:35.667Z,99.11
2016-12-03T05:41:03.557Z,98.92
2016-12-03T05:41:31.989Z,98.92
2016-12-03T05:41:59.823Z,98.92
2016-12-03T05:42:27.661Z,99.26
2016-12-03T05:42:55.942Z,99.49
2016-12-03T05:43:23.794Z,99.01
2016-12-03T05:43:51.789Z,99.69
2016-12-03T05:44:19.864Z,99.44
2016-12-03T05:44:47.679Z,99.21
2016-12-03T05:45:15.811Z,99.35
2016-12-03T05:45:43.652Z,99.44
2016-12-03T05:46:11.428Z,99.35
2016-12-03T05:46:39.586Z,99.93
2016-12-03T05:47:07.684Z,99.99
2016-12-03T05:47:35.808Z,99.99
2016-12-03T05:48:04.276Z,99.93
2016-12-03T05:48:32.208Z,99.44
2016-12-03T05:49:00.388Z,99.06
2016-12-03T05:49:28.523Z,99.16
2016-12-03T05:49:56.445Z,99.54
2016-12-03T05:50:24.530Z,99.64
2016-12-03T05:51:07.034Z,99.93
2016-12-03T05:51:34.889Z,99.83
2016-12-03T05:52:03.168Z,99.73
2016-12-03T05:52:31.330Z,99.35
2016-12-03T05:52:59.305Z,99.83
2016-12-03T05:53:27.171Z,99.73
2016-12-03T05:53:55.055Z,99.99
2016-12-03T05:54:22.821Z,99.83
2016-12-03T05:54:50.618Z,99.99
2016-12-03T05:55:18.510Z,99.99
2016-12-03T05:55:46.303Z,99.99
2016-12-03T05:56:14.723Z,99.93
2016-12-03T05:56:42.555Z,99.99
2016-12-03T05:57:10.771Z,99.83
2016-12-03T05:57:38.869Z,99.99
2016-12-03T05:58:06.729Z,99.93
2016-12-03T05:58:34.877Z,99.99
2016-12-03T05:59:02.932Z,99.99
2016-12-03T05:59:31.070Z,99.99
2016-12-03T05:59:59.508Z,99.99
2016-12-03T06:00:27.429Z,99.99
2016-12-03T06:00:55.508Z,99.99
2016-12-03T06:01:23.619Z,99.99
2016-12-03T06:01:52.111Z,99.99
2016-12-03T06:02:20.114Z,99.99
2016-12-03T06:02:47.943Z,99.99
2016-12-03T06:03:15.848Z,99.99
2016-12-03T06:03:44.018Z,99.99